Time;durP1;ratioP1;P1;durP2;ratioP2;P2;SDS_P1;SDS_P2;PMS_P1;PMS_P2;Temp;Humidity;BMP_temperature;BMP_pressure;BME280_temperature;BME280_humidity;BME280_pressure;Samples;Min_cycle;Max_cycle;Signal;HPM_P1;HPM_P2
2021/10/24 00:00:32;;;;;;;11.68;3.35;;;8.10;94.80;;;;;;5033241;28;20080;-72
2021/10/24 00:02:57;;;;;;;11.73;3.28;;;8.00;94.80;;;;;;5033443;28;20041;-71
2021/10/24 00:05:23;;;;;;;12.25;3.63;;;8.00;94.80;;;;;;5033672;28;20030;-72
2021/10/24 00:07:49;;;;;;;11.52;3.40;;;8.00;94.80;;;;;;5033244;28;20052;-72
2021/10/24 00:10:14;;;;;;;6.82;3.78;;;8.10;94.90;;;;;;5033707;28;20025;-72
2021/10/24 00:12:40;;;;;;;16.05;3.70;;;8.00;94.60;;;;;;5033253;28;20049;-72
2021/10/24 00:15:06;;;;;;;14.02;3.80;;;7.90;94.90;;;;;;5033358;28;20056;-71
2021/10/24 00:17:32;;;;;;;11.23;3.55;;;7.90;95.00;;;;;;5033071;28;20490;-72
2021/10/24 00:19:57;;;;;;;11.15;2.83;;;7.90;95.00;;;;;;5033064;28;20037;-72
2021/10/24 00:22:23;;;;;;;8.45;3.38;;;7.90;95.10;;;;;;5033474;28;20029;-72
2021/10/24 00:24:48;;;;;;;12.38;3.65;;;7.90;95.00;;;;;;5032877;28;20057;-72
2021/10/24 00:27:14;;;;;;;10.80;3.95;;;7.90;95.00;;;;;;5032821;28;20028;-72
2021/10/24 00:29:40;;;;;;;14.02;4.00;;;7.90;95.00;;;;;;5032859;28;20056;-72
2021/10/24 00:32:06;;;;;;;17.08;3.80;;;7.90;94.80;;;;;;5033141;28;20033;-73
2021/10/24 00:34:32;;;;;;;16.33;4.18;;;7.90;94.80;;;;;;5032674;28;20026;-73
2021/10/24 00:36:57;;;;;;;7.28;3.70;;;7.80;94.80;;;;;;5033069;28;20363;-72
2021/10/24 00:39:23;;;;;;;13.60;4.03;;;7.80;94.70;;;;;;5032703;28;20030;-72
2021/10/24 00:41:49;;;;;;;12.20;4.07;;;7.70;95.00;;;;;;5032435;28;20120;-72
2021/10/24 00:44:18;;;;;;;9.77;3.67;;;7.70;95.00;;;;;;5032616;28;20026;-72
2021/10/24 00:46:44;;;;;;;9.35;3.95;;;7.70;95.10;;;;;;5032604;28;20083;-72
2021/10/24 00:49:09;;;;;;;11.82;3.47;;;7.70;95.10;;;;;;5033004;28;20018;-72
2021/10/24 00:51:35;;;;;;;8.80;3.33;;;7.70;95.20;;;;;;5032688;28;20388;-72
2021/10/24 00:54:01;;;;;;;14.85;3.72;;;7.70;95.20;;;;;;5032420;28;20029;-72
2021/10/24 00:56:27;;;;;;;17.70;3.85;;;7.80;95.10;;;;;;5032001;28;20029;-72
2021/10/24 00:58:53;;;;;;;15.45;3.95;;;7.70;95.10;;;;;;5032089;28;20446;-72
2021/10/24 01:01:19;;;;;;;12.43;4.07;;;7.70;95.00;;;;;;5032567;28;20083;-72
2021/10/24 01:03:44;;;;;;;11.68;3.97;;;7.70;95.10;;;;;;5032109;28;20030;-72
2021/10/24 01:06:10;;;;;;;9.45;3.55;;;7.60;95.10;;;;;;5031959;28;20029;-71
2021/10/24 01:08:37;;;;;;;13.85;3.90;;;7.60;95.20;;;;;;5032145;28;20088;-72
2021/10/24 01:11:03;;;;;;;12.80;4.10;;;7.60;95.30;;;;;;5031878;28;20115;-72
2021/10/24 01:13:31;;;;;;;16.33;3.38;;;7.60;95.30;;;;;;5031106;28;20033;-72
2021/10/24 01:16:13;;;;;;;10.95;3.85;;;7.70;95.20;;;;;;5032498;28;20017;-72
2021/10/24 01:18:40;;;;;;;11.07;3.70;;;7.60;95.00;;;;;;5032138;28;20478;-72
2021/10/24 01:21:06;;;;;;;13.02;3.78;;;7.60;95.10;;;;;;5031934;28;20033;-72
2021/10/24 01:23:32;;;;;;;10.85;3.60;;;7.60;95.10;;;;;;5031917;28;20049;-72
2021/10/24 01:25:59;;;;;;;16.00;5.07;;;7.60;95.10;;;;;;5031881;28;20363;-72
2021/10/24 01:28:25;;;;;;;11.52;3.95;;;7.50;95.10;;;;;;5032074;28;20037;-72
2021/10/24 01:30:52;;;;;;;12.23;3.53;;;7.60;95.20;;;;;;5032028;28;20554;-72
2021/10/24 01:33:18;;;;;;;11.07;4.38;;;7.50;95.10;;;;;;5031651;28;20104;-72
2021/10/24 01:35:55;;;;;;;15.75;4.70;;;7.50;95.30;;;;;;5039112;28;20029;-72
2021/10/24 01:38:22;;;;;;;12.35;3.75;;;7.40;95.30;;;;;;5051832;28;20366;-73
2021/10/24 01:40:48;;;;;;;6.32;3.78;;;7.50;95.40;;;;;;5051682;28;20029;-72
2021/10/24 01:43:14;;;;;;;11.95;3.35;;;7.40;95.40;;;;;;5051754;28;20033;-72
2021/10/24 01:45:40;;;;;;;13.50;4.30;;;7.40;95.50;;;;;;5050540;28;20030;-73
2021/10/24 01:48:05;;;;;;;11.30;3.83;;;7.40;95.30;;;;;;5051433;28;20479;-73
2021/10/24 01:50:31;;;;;;;11.40;3.88;;;7.40;95.30;;;;;;5051768;28;20108;-72
2021/10/24 01:52:56;;;;;;;10.43;4.10;;;7.40;95.20;;;;;;5050175;28;20029;-72
2021/10/24 01:55:22;;;;;;;19.20;4.13;;;7.40;95.30;;;;;;5050829;28;20095;-72
2021/10/24 01:57:50;;;;;;;12.07;3.72;;;7.40;95.20;;;;;;5051357;28;20069;-72
2021/10/24 02:00:16;;;;;;;;;;;7.30;95.10;;;;;;5051670;28;20036;-72
2021/10/24 02:02:43;;;;;;;16.05;4.22;;;7.20;95.40;;;;;;5051303;28;19921;-74
2021/10/24 02:05:09;;;;;;;8.02;4.15;;;7.20;95.40;;;;;;5050906;28;20383;-72
2021/10/24 02:07:35;;;;;;;12.70;4.93;;;7.20;95.50;;;;;;5050655;28;20021;-72
2021/10/24 02:10:02;;;;;;;11.48;4.20;;;7.20;95.50;;;;;;5050149;28;20022;-72
2021/10/24 02:12:28;;;;;;;14.73;4.60;;;7.10;95.40;;;;;;5050893;28;20470;-72
2021/10/24 02:14:53;;;;;;;17.05;5.10;;;7.10;95.60;;;;;;5051089;28;20029;-73
2021/10/24 02:17:19;;;;;;;9.55;4.75;;;7.20;95.70;;;;;;5049987;28;20041;-73
2021/10/24 02:19:45;;;;;;;11.07;4.65;;;7.10;95.60;;;;;;5050960;28;20030;-72
2021/10/24 02:22:10;;;;;;;15.13;4.93;;;7.10;95.60;;;;;;5051155;28;20040;-72
2021/10/24 02:24:37;;;;;;;12.32;5.20;;;7.10;95.60;;;;;;5050988;28;20116;-72
2021/10/24 02:27:03;;;;;;;9.25;4.15;;;7.10;95.60;;;;;;5050682;28;20033;-72
2021/10/24 02:29:28;;;;;;;13.65;4.60;;;7.10;95.70;;;;;;5049822;28;20025;-72
2021/10/24 02:31:54;;;;;;;12.95;4.90;;;7.10;95.60;;;;;;5050818;28;20036;-72
2021/10/24 02:34:21;;;;;;;14.20;4.55;;;7.10;95.50;;;;;;5051148;28;20090;-72
2021/10/24 02:36:46;;;;;;;11.77;5.22;;;7.10;95.60;;;;;;5050490;28;20463;-72
2021/10/24 02:39:12;;;;;;;16.05;6.22;;;7.10;95.60;;;;;;5050539;28;20029;-72
2021/10/24 02:41:38;;;;;;;12.82;4.90;;;7.10;95.50;;;;;;5050883;28;20036;-72
2021/10/24 02:44:03;;;;;;;13.13;4.65;;;7.10;95.70;;;;;;5050639;28;20033;-72
2021/10/24 02:46:29;;;;;;;19.20;5.53;;;7.10;95.60;;;;;;5050043;28;20029;-72
2021/10/24 02:48:54;;;;;;;14.73;4.70;;;7.10;95.60;;;;;;5050773;28;20025;-72
2021/10/24 02:51:20;;;;;;;10.38;4.28;;;7.00;95.60;;;;;;5050521;28;20061;-72
2021/10/24 02:53:46;;;;;;;8.77;4.05;;;7.00;95.60;;;;;;5050554;28;20025;-72
2021/10/24 02:56:11;;;;;;;12.65;4.75;;;7.00;95.60;;;;;;5050249;28;20487;-73
2021/10/24 02:58:37;;;;;;;12.65;4.63;;;7.00;95.40;;;;;;5049543;28;20051;-72
2021/10/24 03:01:02;;;;;;;21.65;5.40;;;6.90;95.60;;;;;;5050665;28;20068;-72
2021/10/24 03:03:28;;;;;;;13.27;4.72;;;6.80;95.70;;;;;;5050523;28;20145;-72
2021/10/24 03:05:53;;;;;;;14.15;4.40;;;6.90;95.70;;;;;;5049455;28;20252;-72
2021/10/24 03:08:19;;;;;;;13.35;4.50;;;6.80;95.60;;;;;;5050331;28;20320;-72
2021/10/24 03:10:44;;;;;;;17.95;4.70;;;6.80;95.90;;;;;;5048825;28;20091;-72
2021/10/24 03:13:10;;;;;;;21.27;5.00;;;6.80;96.00;;;;;;5050589;28;20051;-71
2021/10/24 03:15:36;;;;;;;12.48;4.45;;;6.80;95.90;;;;;;5050348;28;20519;-72
2021/10/24 03:18:01;;;;;;;17.45;4.47;;;6.80;96.00;;;;;;5050363;28;20049;-72
2021/10/24 03:20:27;;;;;;;21.88;5.45;;;6.80;96.00;;;;;;5052417;28;20111;-72
2021/10/24 03:22:53;;;;;;;11.93;5.22;;;6.80;96.00;;;;;;5044312;28;20669;-72
2021/10/24 03:25:18;;;;;;;8.85;4.35;;;6.80;96.00;;;;;;5034594;28;20033;-73
2021/10/24 03:27:44;;;;;;;7.25;3.95;;;6.80;95.90;;;;;;5034172;28;20387;-72
2021/10/24 03:30:09;;;;;;;16.42;5.07;;;6.80;96.00;;;;;;5032893;28;20036;-71
2021/10/24 03:32:35;;;;;;;8.35;4.70;;;6.70;95.90;;;;;;5034084;28;20030;-71
2021/10/24 03:35:01;;;;;;;16.83;5.13;;;6.80;95.90;;;;;;5032946;28;20033;-71
2021/10/24 03:37:26;;;;;;;8.73;3.58;;;6.70;95.90;;;;;;5033895;28;20112;-71
2021/10/24 03:39:52;;;;;;;11.02;4.65;;;6.70;96.10;;;;;;5034576;28;20053;-71
2021/10/24 03:42:18;;;;;;;12.88;4.35;;;6.70;96.20;;;;;;5033939;28;20069;-73
2021/10/24 03:44:43;;;;;;;10.57;4.47;;;6.70;96.00;;;;;;5034036;28;20080;-71
2021/10/24 03:47:09;;;;;;;12.85;4.57;;;6.70;96.00;;;;;;5033866;28;20120;-71
2021/10/24 03:49:35;;;;;;;12.70;4.97;;;6.70;96.00;;;;;;5034051;28;20022;-71
2021/10/24 03:52:00;;;;;;;15.07;4.57;;;6.80;96.00;;;;;;5033107;28;20032;-72
2021/10/24 03:54:26;;;;;;;15.70;5.20;;;6.60;95.90;;;;;;5032752;28;20057;-72
2021/10/24 03:56:52;;;;;;;14.52;5.25;;;6.60;96.10;;;;;;5033732;28;20041;-72
2021/10/24 03:59:18;;;;;;;11.88;5.07;;;6.60;96.20;;;;;;5033486;28;20021;-72
2021/10/24 04:01:43;;;;;;;13.00;5.45;;;6.60;96.00;;;;;;5033620;28;20025;-72
2021/10/24 04:04:09;;;;;;;14.68;4.97;;;6.60;96.00;;;;;;5033029;28;20440;-73
2021/10/24 04:06:34;;;;;;;11.02;5.18;;;6.50;96.20;;;;;;5033491;28;20041;-73
2021/10/24 04:09:00;;;;;;;10.63;4.85;;;6.50;96.30;;;;;;5032426;28;20068;-73
2021/10/24 04:11:25;;;;;;;13.50;4.43;;;6.50;96.40;;;;;;5033331;28;20045;-72
2021/10/24 04:13:51;;;;;;;13.45;4.75;;;6.40;96.40;;;;;;5033462;28;20459;-72
2021/10/24 04:16:16;;;;;;;14.93;5.15;;;6.40;96.40;;;;;;5033900;28;20022;-72
2021/10/24 04:18:42;;;;;;;13.27;4.97;;;6.50;96.40;;;;;;5033536;28;20446;-72
2021/10/24 04:21:08;;;;;;;12.38;4.68;;;6.50;96.10;;;;;;5033027;28;20036;-73
2021/10/24 04:23:34;;;;;;;11.85;5.35;;;6.50;96.20;;;;;;5033088;28;20034;-71
2021/10/24 04:25:59;;;;;;;12.80;5.63;;;6.40;96.30;;;;;;5033279;28;20341;-72
2021/10/24 04:28:25;;;;;;;17.35;5.53;;;6.40;96.30;;;;;;5033452;28;20511;-73
2021/10/24 04:30:51;;;;;;;12.25;6.05;;;6.40;96.40;;;;;;5032420;28;20418;-71
2021/10/24 04:33:17;;;;;;;15.50;6.00;;;6.40;96.50;;;;;;5032688;28;20030;-72
2021/10/24 04:35:43;;;;;;;16.73;6.10;;;6.50;96.50;;;;;;5031848;28;20053;-72
2021/10/24 04:38:09;;;;;;;15.65;6.90;;;6.50;96.50;;;;;;5032788;28;20053;-72
2021/10/24 04:40:34;;;;;;;11.02;5.57;;;6.50;96.50;;;;;;5032853;28;20025;-71
2021/10/24 04:43:00;;;;;;;22.33;6.28;;;6.60;96.40;;;;;;5032140;28;20120;-73
2021/10/24 04:45:25;;;;;;;13.50;5.88;;;6.50;96.40;;;;;;5032621;28;20033;-72
2021/10/24 04:47:51;;;;;;;16.90;6.00;;;6.50;96.50;;;;;;5032703;28;20038;-73
2021/10/24 04:50:17;;;;;;;14.80;5.50;;;6.50;96.30;;;;;;5032759;28;20125;-72
2021/10/24 04:52:42;;;;;;;13.07;5.35;;;6.50;96.50;;;;;;5032564;28;20091;-74
2021/10/24 04:55:08;;;;;;;13.07;5.60;;;6.50;96.40;;;;;;5033083;28;20036;-73
2021/10/24 04:57:34;;;;;;;17.60;6.10;;;6.50;96.50;;;;;;5031300;28;20064;-72
2021/10/24 05:00:00;;;;;;;10.63;5.38;;;6.50;96.50;;;;;;5032504;28;20030;-73
2021/10/24 05:02:26;;;;;;;14.05;5.57;;;6.50;96.60;;;;;;5032206;28;20037;-72
2021/10/24 05:04:51;;;;;;;15.38;6.40;;;6.50;96.80;;;;;;5032260;28;20045;-72
2021/10/24 05:07:17;;;;;;;20.35;6.78;;;6.50;96.60;;;;;;5032544;28;20034;-72
2021/10/24 05:09:42;;;;;;;17.23;6.25;;;6.50;96.70;;;;;;5031984;28;20468;-71
2021/10/24 05:12:08;;;;;;;12.45;5.47;;;6.50;96.60;;;;;;5031112;28;20054;-72
2021/10/24 05:14:33;;;;;;;12.68;4.90;;;6.40;96.60;;;;;;5032139;28;20381;-71
2021/10/24 05:16:59;;;;;;;14.27;5.43;;;6.50;96.70;;;;;;5032208;28;20160;-71
2021/10/24 05:19:25;;;;;;;13.23;4.68;;;6.50;96.70;;;;;;5032295;28;20366;-72
2021/10/24 05:21:51;;;;;;;12.32;4.57;;;6.50;96.60;;;;;;5032227;28;20463;-72
2021/10/24 05:24:17;;;;;;;9.63;4.22;;;6.40;96.50;;;;;;5032129;28;20071;-73
2021/10/24 05:26:43;;;;;;;11.70;4.50;;;6.50;96.50;;;;;;5031881;28;20467;-73
2021/10/24 05:29:08;;;;;;;11.02;4.00;;;6.50;96.50;;;;;;5032279;28;20026;-73
2021/10/24 05:31:34;;;;;;;9.40;4.10;;;6.40;96.40;;;;;;5031711;28;20212;-73
2021/10/24 05:34:00;;;;;;;10.65;4.38;;;6.40;96.40;;;;;;5032316;28;20022;-71
2021/10/24 05:36:26;;;;;;;11.10;4.40;;;6.40;96.60;;;;;;5031744;28;20043;-71
2021/10/24 05:38:52;;;;;;;13.65;4.38;;;6.40;96.60;;;;;;5031905;28;20029;-71
2021/10/24 05:41:18;;;;;;;12.18;4.32;;;6.50;96.40;;;;;;5030580;28;20025;-72
2021/10/24 05:43:43;;;;;;;10.25;3.78;;;6.50;96.50;;;;;;5031258;28;20091;-72
2021/10/24 05:46:09;;;;;;;9.23;4.25;;;6.40;96.40;;;;;;5032360;28;20155;-72
2021/10/24 05:48:35;;;;;;;8.35;3.63;;;6.40;96.60;;;;;;5031661;28;20121;-72
2021/10/24 05:51:00;;;;;;;16.40;4.82;;;6.40;96.70;;;;;;5031615;28;20116;-71
2021/10/24 05:53:26;;;;;;;13.40;3.65;;;6.40;96.60;;;;;;5031560;28;20060;-71
2021/10/24 05:55:52;;;;;;;9.90;3.85;;;6.50;96.70;;;;;;5031693;28;20033;-71
2021/10/24 05:58:17;;;;;;;11.43;4.03;;;6.40;96.60;;;;;;5030532;28;20025;-72
2021/10/24 06:00:43;;;;;;;12.15;3.92;;;6.40;96.60;;;;;;5031092;28;20418;-71
2021/10/24 06:03:09;;;;;;;12.18;4.35;;;6.40;96.50;;;;;;5031486;28;20095;-71
2021/10/24 06:05:35;;;;;;;10.13;4.53;;;6.50;96.70;;;;;;5029905;28;20025;-71
2021/10/24 06:08:02;;;;;;;11.35;4.13;;;6.40;96.60;;;;;;5029898;28;20029;-72
2021/10/24 06:10:38;;;;;;;13.23;4.45;;;6.30;96.60;;;;;;5029643;28;20415;-72
2021/10/24 06:13:04;;;;;;;12.90;4.05;;;6.30;96.70;;;;;;5039122;28;20053;-71
2021/10/24 06:15:30;;;;;;;13.38;4.10;;;6.40;96.70;;;;;;5051120;28;20064;-72
2021/10/24 06:17:56;;;;;;;13.43;4.28;;;6.40;96.70;;;;;;5051213;28;20357;-72
2021/10/24 06:20:23;;;;;;;11.45;4.07;;;6.30;96.60;;;;;;5051085;28;20162;-73
2021/10/24 06:22:49;;;;;;;13.23;4.20;;;6.40;96.60;;;;;;5050934;28;20513;-72
2021/10/24 06:25:16;;;;;;;14.75;4.80;;;6.40;96.60;;;;;;5051700;28;20266;-72
2021/10/24 06:27:43;;;;;;;9.20;4.45;;;6.40;96.60;;;;;;5050687;28;20037;-73
2021/10/24 06:30:11;;;;;;;9.90;4.15;;;6.40;96.60;;;;;;5049824;28;20060;-71
2021/10/24 06:32:38;;;;;;;9.32;4.25;;;6.40;96.60;;;;;;5050921;28;20345;-70
2021/10/24 06:35:04;;;;;;;11.60;4.38;;;6.40;96.60;;;;;;5050789;28;20599;-71
2021/10/24 06:37:36;;;;;;;5.63;3.55;;;6.50;96.50;;;;;;5050836;28;20037;-71
2021/10/24 06:40:03;;;;;;;12.45;4.05;;;6.50;96.40;;;;;;5051527;28;20017;-71
2021/10/24 06:42:29;;;;;;;10.30;4.65;;;6.50;96.50;;;;;;5050207;28;20060;-71
2021/10/24 06:44:54;;;;;;;13.68;5.47;;;6.50;96.50;;;;;;5050912;28;20455;-71
2021/10/24 06:47:20;;;;;;;12.20;3.92;;;6.60;96.50;;;;;;5050971;28;20058;-72
2021/10/24 06:49:46;;;;;;;14.52;4.57;;;6.60;96.50;;;;;;5050700;28;20677;-72
2021/10/24 06:52:11;;;;;;;10.65;4.38;;;6.60;96.50;;;;;;5051338;28;20260;-73
2021/10/24 06:54:37;;;;;;;14.43;5.32;;;6.60;96.50;;;;;;5051757;28;20040;-72
2021/10/24 06:57:02;;;;;;;12.05;4.90;;;6.70;96.60;;;;;;5053652;28;20037;-72
2021/10/24 06:59:28;;;;;;;15.05;5.57;;;6.70;96.50;;;;;;5054661;28;20252;-72
2021/10/24 07:01:54;;;;;;;18.38;5.43;;;6.70;96.30;;;;;;5054623;28;20032;-74
2021/10/24 07:04:19;;;;;;;13.60;5.28;;;6.70;96.50;;;;;;5055165;28;20340;-72
2021/10/24 07:06:46;;;;;;;11.68;4.57;;;6.80;96.50;;;;;;5053546;28;20044;-73
2021/10/24 07:09:11;;;;;;;11.25;4.22;;;6.80;96.40;;;;;;5053719;28;20029;-72
2021/10/24 07:11:37;;;;;;;13.60;4.43;;;6.70;96.40;;;;;;5052714;28;20055;-73
2021/10/24 07:14:02;;;;;;;19.38;4.20;;;6.80;96.80;;;;;;5054418;28;20344;-71
2021/10/24 07:16:28;;;;;;;7.60;3.75;;;6.80;96.60;;;;;;5054375;28;20057;-73
2021/10/24 07:18:53;;;;;;;9.00;3.95;;;6.80;96.70;;;;;;5055130;28;20414;-74
2021/10/24 07:21:19;;;;;;;16.08;4.90;;;6.90;96.70;;;;;;5053276;28;20033;-74
2021/10/24 07:23:45;;;;;;;13.93;4.90;;;6.90;96.70;;;;;;5054372;28;20107;-74
2021/10/24 07:26:10;;;;;;;14.25;5.25;;;6.90;96.70;;;;;;5054347;28;20116;-72
2021/10/24 07:28:36;;;;;;;18.55;4.70;;;7.00;96.70;;;;;;5054327;28;20410;-72
2021/10/24 07:31:03;;;;;;;11.00;4.25;;;7.10;96.60;;;;;;5055401;28;20051;-72
2021/10/24 07:33:28;;;;;;;9.38;3.88;;;7.10;96.70;;;;;;5037475;28;20033;-72
2021/10/24 07:35:54;;;;;;;13.05;4.28;;;7.10;96.60;;;;;;5034379;28;20113;-70
2021/10/24 07:38:20;;;;;;;16.65;3.92;;;7.20;96.50;;;;;;5034290;28;20029;-70
2021/10/24 07:40:49;;;;;;;21.98;5.32;;;7.20;96.40;;;;;;5033614;28;20134;-70
2021/10/24 07:43:21;;;;;;;9.88;4.18;;;7.30;96.40;;;;;;5034350;28;20033;-70
2021/10/24 07:45:48;;;;;;;10.07;4.32;;;7.30;96.30;;;;;;5033853;28;20030;-70
2021/10/24 07:48:14;;;;;;;15.07;6.63;;;7.40;96.40;;;;;;5034009;28;20056;-70
2021/10/24 07:50:42;;;;;;;19.30;4.75;;;7.40;96.30;;;;;;5033768;28;20033;-71
2021/10/24 07:53:07;;;;;;;22.33;8.98;;;7.60;96.10;;;;;;5034008;28;20036;-71
2021/10/24 07:55:34;;;;;;;17.73;5.45;;;7.60;96.00;;;;;;5033618;28;20021;-70
2021/10/24 07:58:00;;;;;;;12.27;4.65;;;7.60;95.90;;;;;;5034299;28;20017;-71
2021/10/24 08:00:25;;;;;;;18.42;4.72;;;7.70;96.10;;;;;;5033712;28;20611;-71
2021/10/24 08:02:51;;;;;;;11.90;4.97;;;7.80;96.10;;;;;;5033575;28;20452;-71
2021/10/24 08:05:18;;;;;;;9.88;4.15;;;7.80;96.00;;;;;;5032211;28;20404;-69
2021/10/24 08:07:44;;;;;;;10.05;4.28;;;7.80;95.90;;;;;;5033321;28;20407;-69
2021/10/24 08:10:11;;;;;;;10.98;4.65;;;7.90;95.90;;;;;;5033823;28;20479;-70
2021/10/24 08:12:39;;;;;;;20.23;5.00;;;7.90;96.00;;;;;;5032722;28;20503;-70
2021/10/24 08:15:06;;;;;;;9.32;4.80;;;8.00;95.80;;;;;;5033117;28;20371;-71
2021/10/24 08:17:32;;;;;;;11.98;4.47;;;8.10;95.60;;;;;;5032290;28;20053;-71
2021/10/24 08:19:58;;;;;;;8.40;3.55;;;8.20;95.60;;;;;;5032968;28;20022;-71
2021/10/24 08:22:25;;;;;;;13.88;3.88;;;8.30;95.40;;;;;;5033713;28;20044;-71
2021/10/24 08:24:51;;;;;;;17.05;4.25;;;8.40;95.20;;;;;;5033163;28;20422;-71
2021/10/24 08:27:17;;;;;;;11.13;4.45;;;8.60;95.30;;;;;;5032711;28;20332;-71
2021/10/24 08:29:43;;;;;;;15.15;3.60;;;8.80;95.20;;;;;;5032853;28;20034;-70
2021/10/24 08:32:10;;;;;;;9.80;3.65;;;8.90;94.90;;;;;;5032792;28;20025;-70
2021/10/24 08:34:38;;;;;;;16.03;6.63;;;9.10;94.70;;;;;;5032669;28;20056;-70
2021/10/24 08:37:05;;;;;;;15.63;4.38;;;9.20;94.90;;;;;;5033266;28;20274;-71
2021/10/24 08:39:31;;;;;;;10.95;4.13;;;9.40;94.50;;;;;;5032753;28;20031;-69
2021/10/24 08:41:57;;;;;;;9.63;3.95;;;9.60;94.50;;;;;;5032190;28;20025;-71
2021/10/24 08:44:25;;;;;;;9.15;4.03;;;9.70;94.30;;;;;;5032518;28;20055;-70
2021/10/24 08:46:51;;;;;;;12.15;3.97;;;9.80;94.20;;;;;;5032554;28;20427;-71
2021/10/24 08:49:17;;;;;;;13.95;4.05;;;9.90;93.90;;;;;;5032892;28;20036;-70
2021/10/24 08:51:43;;;;;;;8.65;4.03;;;10.10;93.20;;;;;;5032486;28;20045;-69
2021/10/24 08:54:10;;;;;;;12.90;4.97;;;10.10;92.70;;;;;;5032462;28;20486;-70
2021/10/24 08:56:37;;;;;;;11.13;4.23;;;10.20;92.60;;;;;;5030884;28;20037;-68
2021/10/24 08:59:03;;;;;;;9.75;3.72;;;10.20;92.60;;;;;;5032234;28;20033;-70
2021/10/24 09:01:29;;;;;;;9.50;3.80;;;10.40;92.80;;;;;;5032290;28;20033;-71
2021/10/24 09:04:09;;;;;;;8.20;3.45;;;10.40;92.80;;;;;;5032532;28;20021;-70
2021/10/24 09:06:56;;;;;;;12.63;3.75;;;10.50;92.60;;;;;;5032637;28;20143;-72
2021/10/24 09:09:32;;;;;;;10.53;5.13;;;10.50;92.30;;;;;;5031177;28;20108;-72
2021/10/24 09:11:59;;;;;;;11.20;3.85;;;10.70;92.00;;;;;;5030591;28;20381;-70
2021/10/24 09:14:46;;;;;;;9.93;3.10;;;11.10;92.00;;;;;;5032322;28;20095;-70
2021/10/24 09:17:31;;;;;;;8.85;3.17;;;12.40;91.10;;;;;;5031671;28;20021;-72
2021/10/24 09:20:05;;;;;;;12.00;4.22;;;12.90;90.00;;;;;;5032114;28;20033;-72
2021/10/24 09:22:39;;;;;;;8.80;2.60;;;13.60;90.10;;;;;;5032169;28;20079;-70
2021/10/24 09:25:12;;;;;;;12.35;3.08;;;13.90;88.50;;;;;;5032171;28;20062;-71
2021/10/24 09:27:48;;;;;;;6.40;2.45;;;13.80;87.00;;;;;;5032024;28;20507;-73
2021/10/24 09:30:21;;;;;;;15.43;3.63;;;13.60;87.80;;;;;;5031873;28;20025;-72
2021/10/24 09:32:59;;;;;;;9.00;2.75;;;13.60;87.70;;;;;;5031746;28;20035;-72
2021/10/24 09:35:29;;;;;;;15.70;5.43;;;14.90;86.00;;;;;;5031726;28;20121;-72
2021/10/24 09:38:07;;;;;;;8.98;4.10;;;16.40;84.70;;;;;;5031533;28;20025;-73
2021/10/24 09:40:40;;;;;;;6.85;2.78;;;17.80;81.50;;;;;;5031445;28;20033;-71
2021/10/24 09:43:17;;;;;;;6.50;2.45;;;18.90;76.60;;;;;;5032065;28;20022;-72
2021/10/24 09:45:45;;;;;;;9.53;2.70;;;19.70;74.00;;;;;;5031908;28;20056;-73
2021/10/24 09:48:19;;;;;;;9.20;2.50;;;20.60;70.40;;;;;;5031613;28;20117;-74
2021/10/24 09:50:51;;;;;;;7.90;2.42;;;21.10;72.30;;;;;;5031519;28;20111;-73
2021/10/24 09:53:24;;;;;;;8.20;2.97;;;21.90;69.30;;;;;;5031696;28;20161;-75
2021/10/24 09:55:53;;;;;;;6.47;2.30;;;22.40;67.30;;;;;;5031127;28;20026;-72
2021/10/24 09:58:19;;;;;;;8.70;2.47;;;22.40;62.30;;;;;;5031781;28;20040;-74
2021/10/24 10:00:45;;;;;;;7.05;2.13;;;22.30;64.60;;;;;;5031236;28;20112;-73
2021/10/24 10:03:11;;;;;;;6.43;2.20;;;23.10;61.20;;;;;;5031357;28;20100;-71
2021/10/24 10:05:38;;;;;;;6.25;1.92;;;23.80;61.40;;;;;;5031298;28;20037;-70
2021/10/24 10:08:06;;;;;;;7.38;2.22;;;23.70;58.60;;;;;;5029721;28;20033;-74
2021/10/24 10:10:32;;;;;;;4.57;1.80;;;24.20;58.00;;;;;;5030863;28;20367;-70
2021/10/24 10:13:02;;;;;;;4.72;1.65;;;24.20;57.10;;;;;;5031573;28;20030;-73
2021/10/24 10:15:33;;;;;;;7.68;2.13;;;24.40;55.90;;;;;;5030199;28;20085;-74
2021/10/24 10:18:02;;;;;;;4.88;1.88;;;24.70;55.50;;;;;;5031064;28;20030;-71
2021/10/24 10:20:29;;;;;;;7.80;2.50;;;24.30;54.00;;;;;;5030087;28;20059;-74
2021/10/24 10:23:09;;;;;;;13.10;2.42;;;24.60;52.90;;;;;;5031011;28;20033;-72
2021/10/24 10:25:37;;;;;;;12.40;4.32;;;24.40;53.40;;;;;;5030675;28;20100;-71
2021/10/24 10:28:04;;;;;;;6.20;3.20;;;25.00;52.50;;;;;;5030729;28;20030;-73
2021/10/24 10:30:42;;;;;;;8.65;2.28;;;24.90;51.70;;;;;;5029800;28;20044;-71
2021/10/24 10:33:27;;;;;;;4.82;1.70;;;25.20;50.20;;;;;;5027553;28;20087;-71
2021/10/24 10:35:54;;;;;;;7.95;1.85;;;25.20;50.00;;;;;;5030509;28;20125;-71
2021/10/24 10:38:40;;;;;;;9.98;1.90;;;24.80;50.50;;;;;;5030850;28;20060;-72
2021/10/24 10:41:15;;;;;;;10.07;2.20;;;25.30;50.80;;;;;;5030588;28;20036;-70
2021/10/24 10:44:01;;;;;;;6.22;2.30;;;25.00;50.20;;;;;;5030306;28;20035;-70
2021/10/24 10:46:30;;;;;;;6.45;1.90;;;24.80;49.70;;;;;;5030170;28;20033;-70
2021/10/24 10:49:25;;;;;;;4.60;1.45;;;24.00;49.40;;;;;;5030608;28;20379;-69
2021/10/24 10:51:52;;;;;;;6.97;2.30;;;24.10;48.60;;;;;;5030420;28;20033;-70
2021/10/24 10:54:18;;;;;;;5.07;1.67;;;24.30;48.40;;;;;;5030216;28;20038;-69
2021/10/24 10:56:52;;;;;;;7.90;2.10;;;24.80;48.00;;;;;;5030221;28;20030;-69
2021/10/24 10:59:29;;;;;;;4.43;1.63;;;25.30;48.70;;;;;;5030097;28;20033;-69
2021/10/24 11:02:34;;;;;;;7.43;1.90;;;24.60;48.10;;;;;;5030536;28;20483;-73
2021/10/24 11:05:02;;;;;;;8.20;1.60;;;24.40;46.60;;;;;;5030231;28;20025;-73
2021/10/24 11:07:38;;;;;;;3.65;1.60;;;24.50;46.70;;;;;;5030732;28;20183;-72
2021/10/24 11:10:06;;;;;;;5.13;1.60;;;24.60;47.20;;;;;;5030580;28;20104;-71
2021/10/24 11:12:34;;;;;;;;;;;24.20;47.50;;;;;;5029772;28;20474;-73
2021/10/24 11:15:05;;;;;;;3.35;1.60;;;24.60;48.00;;;;;;5030319;28;19971;-74
2021/10/24 11:17:39;;;;;;;5.40;1.60;;;24.50;46.60;;;;;;5030056;28;20049;-70
2021/10/24 11:20:23;;;;;;;7.22;1.95;;;24.80;46.90;;;;;;5030046;28;20032;-71
2021/10/24 11:23:03;;;;;;;5.53;1.35;;;24.60;46.10;;;;;;5029817;28;20037;-70
2021/10/24 11:25:39;;;;;;;5.72;1.50;;;24.00;46.00;;;;;;5029932;28;20029;-73
2021/10/24 11:28:08;;;;;;;8.10;2.00;;;23.40;46.00;;;;;;5030456;28;20363;-73
2021/10/24 11:30:36;;;;;;;6.53;1.58;;;23.40;45.80;;;;;;5030065;28;20037;-70
2021/10/24 11:33:02;;;;;;;5.07;1.67;;;23.20;46.00;;;;;;5029882;28;20022;-69
2021/10/24 11:35:27;;;;;;;4.95;1.20;;;22.80;46.80;;;;;;5029894;28;20475;-70
2021/10/24 11:37:59;;;;;;;8.13;3.20;;;22.50;47.30;;;;;;5029740;28;20040;-69
2021/10/24 11:40:29;;;;;;;5.80;1.80;;;21.70;48.20;;;;;;5029468;28;20036;-70
2021/10/24 11:43:13;;;;;;;6.03;1.73;;;21.10;48.20;;;;;;5033423;28;20556;-70
2021/10/24 11:45:51;;;;;;;4.43;1.60;;;20.70;49.30;;;;;;5033875;28;20030;-72
2021/10/24 11:48:18;;;;;;;7.05;1.95;;;20.40;49.50;;;;;;5033800;28;20037;-68
2021/10/24 11:51:00;;;;;;;4.38;1.52;;;20.20;50.50;;;;;;5033358;28;20032;-70
2021/10/24 11:53:32;;;;;;;5.50;1.60;;;20.00;51.00;;;;;;5033780;28;20108;-71
2021/10/24 11:56:17;;;;;;;4.25;1.60;;;19.90;51.20;;;;;;5032323;28;20052;-72
2021/10/24 12:01:18;;;;;;;8.48;1.75;;;19.20;51.30;;;;;;5034114;28;20021;-70
2021/10/24 12:03:56;;;;;;;4.13;1.60;;;19.00;51.90;;;;;;5033238;28;20030;-69
2021/10/24 12:06:53;;;;;;;10.57;1.48;;;18.90;52.40;;;;;;5033192;28;20108;-74
2021/10/24 12:09:39;;;;;;;;;;;18.50;52.70;;;;;;5033712;28;20029;-73
2021/10/24 12:12:22;;;;;;;3.88;1.40;;;18.50;54.20;;;;;;5031497;28;20298;-73
2021/10/24 12:15:02;;;;;;;6.70;2.05;;;18.20;53.60;;;;;;5033167;28;20091;-68
2021/10/24 12:17:34;;;;;;;5.70;1.63;;;17.90;54.10;;;;;;5032862;28;20125;-70
2021/10/24 12:20:10;;;;;;;9.23;2.80;;;17.90;54.50;;;;;;5033055;28;20105;-70
2021/10/24 12:22:46;;;;;;;6.63;1.77;;;17.90;54.50;;;;;;5032826;28;20017;-70
2021/10/24 12:25:16;;;;;;;4.50;1.80;;;17.80;54.50;;;;;;5032305;28;20392;-70
2021/10/24 12:27:44;;;;;;;5.18;1.52;;;17.80;55.00;;;;;;5032478;28;20022;-69
2021/10/24 12:30:19;;;;;;;5.32;1.77;;;17.70;54.30;;;;;;5031414;28;20032;-70
2021/10/24 12:32:55;;;;;;;8.73;1.67;;;17.40;53.90;;;;;;5032399;28;20465;-72
2021/10/24 12:35:21;;;;;;;9.65;1.90;;;17.30;54.10;;;;;;5032510;28;20045;-72
2021/10/24 12:38:03;;;;;;;6.93;1.63;;;17.20;54.50;;;;;;5032680;28;20030;-70
2021/10/24 12:40:32;;;;;;;4.80;1.73;;;17.00;54.60;;;;;;5032593;28;20025;-72
2021/10/24 12:43:12;;;;;;;3.03;1.13;;;16.90;55.20;;;;;;5033050;28;20025;-72
2021/10/24 12:45:44;;;;;;;5.07;1.45;;;16.80;55.40;;;;;;5032489;28;20033;-72
2021/10/24 12:48:10;;;;;;;3.53;1.33;;;16.80;55.80;;;;;;5032468;28;20022;-71
2021/10/24 12:50:37;;;;;;;7.50;1.60;;;16.70;56.20;;;;;;5032362;28;20025;-71
2021/10/24 12:53:06;;;;;;;3.90;1.53;;;16.70;56.00;;;;;;5031462;28;20432;-72
2021/10/24 12:55:32;;;;;;;7.82;3.83;;;16.70;55.90;;;;;;5032202;28;20250;-72